createdAt,value
2023-05-01T00:00:10.468Z,0.80
2023-05-01T00:02:58.005Z,0.74
2023-05-01T00:05:25.641Z,0.69
2023-05-01T00:07:53.267Z,0.65
2023-05-01T00:10:20.821Z,0.67
2023-05-01T00:12:48.425Z,0.71
2023-05-01T00:15:16.324Z,0.78
2023-05-01T00:17:43.967Z,0.83
2023-05-01T00:20:11.803Z,0.82
2023-05-01T00:22:39.374Z,0.78
2023-05-01T00:25:07.255Z,0.74
2023-05-01T00:27:34.835Z,0.68
2023-05-01T00:30:02.635Z,0.62
2023-05-01T00:32:30.249Z,0.56
2023-05-01T00:34:57.835Z,0.49
2023-05-01T00:37:25.379Z,0.43
2023-05-01T00:39:52.981Z,0.40
2023-05-01T00:42:20.548Z,0.38
2023-05-01T00:44:48.120Z,0.37
2023-05-01T00:47:15.915Z,0.36
2023-05-01T00:49:44.518Z,0.32
2023-05-01T00:52:12.236Z,0.26
2023-05-01T00:54:39.834Z,0.20
2023-05-01T00:57:07.568Z,0.13
2023-05-01T00:59:35.131Z,0.05
2023-05-01T01:02:03.157Z,-0.02
2023-05-01T01:04:30.776Z,-0.07
2023-05-01T01:07:20.713Z,-0.13
2023-05-01T01:09:57.364Z,-0.17
2023-05-01T01:12:39.033Z,-0.21
2023-05-01T01:15:12.524Z,-0.27
2023-05-01T01:17:53.125Z,-0.31
2023-05-01T01:20:31.999Z,-0.36
2023-05-01T01:23:08.570Z,-0.39
2023-05-01T01:25:56.399Z,-0.43
2023-05-01T01:28:40.631Z,-0.47
2023-05-01T01:31:17.316Z,-0.51
2023-05-01T01:33:49.560Z,-0.55
2023-05-01T01:36:32.467Z,-0.57
2023-05-01T01:39:13.045Z,-0.60
2023-05-01T01:41:44.499Z,-0.65
2023-05-01T01:44:28.614Z,-0.70
2023-05-01T01:46:56.632Z,-0.74
2023-05-01T01:49:27.395Z,-0.78
2023-05-01T01:51:57.879Z,-0.79
2023-05-01T01:54:33.436Z,-0.82
2023-05-01T01:57:03.241Z,-0.88
2023-05-01T01:59:33.682Z,-0.92
2023-05-01T02:02:02.200Z,-0.96
2023-05-01T02:04:31.548Z,-1.01
2023-05-01T02:07:01.179Z,-1.03
2023-05-01T02:09:30.024Z,-1.03
2023-05-01T02:12:00.343Z,-1.03
2023-05-01T02:14:30.091Z,-1.02
2023-05-01T02:16:58.269Z,-1.04
2023-05-01T02:19:26.849Z,-1.04
2023-05-01T02:21:57.784Z,-1.03
2023-05-01T02:24:28.388Z,-1.04
2023-05-01T02:27:03.971Z,-1.01
2023-05-01T02:29:31.571Z,-1.01
2023-05-01T02:32:00.388Z,-1.04
2023-05-01T02:34:28.097Z,-1.06
2023-05-01T02:36:55.721Z,-1.05
2023-05-01T02:39:23.338Z,-1.01
2023-05-01T02:41:54.529Z,-0.99
2023-05-01T02:44:23.707Z,-0.99
2023-05-01T02:46:53.510Z,-1.03
2023-05-01T02:49:21.991Z,-1.07
2023-05-01T02:51:50.669Z,-1.12
2023-05-01T02:54:19.150Z,-1.17
2023-05-01T02:56:46.712Z,-1.23
2023-05-01T02:59:14.226Z,-1.28
2023-05-01T03:01:41.956Z,-1.33
2023-05-01T03:04:09.730Z,-1.38
2023-05-01T03:06:37.412Z,-1.42
2023-05-01T03:09:05.050Z,-1.45
2023-05-01T03:11:32.606Z,-1.46
2023-05-01T03:14:00.185Z,-1.46
2023-05-01T03:16:27.749Z,-1.44
2023-05-01T03:18:55.350Z,-1.42
2023-05-01T03:21:22.926Z,-1.39
2023-05-01T03:23:50.490Z,-1.37
2023-05-01T03:26:18.132Z,-1.36
2023-05-01T03:28:45.720Z,-1.36
2023-05-01T03:31:13.279Z,-1.36
2023-05-01T03:33:40.964Z,-1.36
2023-05-01T03:36:08.540Z,-1.34
2023-05-01T03:38:36.100Z,-1.26
2023-05-01T03:41:03.700Z,-1.19
2023-05-01T03:43:31.668Z,-1.14
2023-05-01T03:45:59.317Z,-1.10
2023-05-01T03:48:26.897Z,-1.05
2023-05-01T03:50:54.449Z,-1.01
2023-05-01T03:53:22.028Z,-0.97
2023-05-01T03:55:49.709Z,-0.93
2023-05-01T03:58:17.288Z,-0.88
2023-05-01T04:00:44.834Z,-0.82
2023-05-01T04:03:12.480Z,-0.75
2023-05-01T04:05:40.383Z,-0.67
2023-05-01T04:08:07.932Z,-0.59
2023-05-01T04:10:35.541Z,-0.49
2023-05-01T04:13:03.151Z,-0.40
2023-05-01T04:15:30.787Z,-0.33
2023-05-01T04:17:58.530Z,-0.26
2023-05-01T04:20:26.146Z,-0.19
2023-05-01T04:22:53.768Z,-0.09
2023-05-01T04:25:21.304Z,0.01
2023-05-01T04:27:48.895Z,0.10
2023-05-01T04:30:16.674Z,0.16
2023-05-01T04:32:44.291Z,0.23
2023-05-01T04:35:11.917Z,0.33
2023-05-01T04:37:39.476Z,0.41
2023-05-01T04:40:09.728Z,0.52
2023-05-01T04:42:38.795Z,0.67
2023-05-01T04:45:06.816Z,0.80
2023-05-01T04:47:34.485Z,0.96
2023-05-01T04:50:02.065Z,1.10
2023-05-01T04:52:29.681Z,1.24
2023-05-01T04:54:57.234Z,1.40
2023-05-01T04:57:24.782Z,1.55
2023-05-01T04:59:52.399Z,1.71
2023-05-01T05:02:19.973Z,1.85
2023-05-01T05:04:47.598Z,2.02
2023-05-01T05:07:15.344Z,2.19
2023-05-01T05:09:42.866Z,2.36
2023-05-01T05:12:10.400Z,2.53
2023-05-01T05:14:37.957Z,2.69
2023-05-01T05:17:05.513Z,2.84
2023-05-01T05:19:33.095Z,2.98
2023-05-01T05:22:03.584Z,3.12
2023-05-01T05:24:31.460Z,3.26
2023-05-01T05:26:59.027Z,3.39
2023-05-01T05:29:26.598Z,3.52
2023-05-01T05:31:54.335Z,3.67
2023-05-01T05:34:22.053Z,3.80
2023-05-01T05:36:49.798Z,3.94
2023-05-01T05:39:17.547Z,4.06
2023-05-01T05:41:45.375Z,4.21
2023-05-01T05:44:12.962Z,4.38
2023-05-01T05:46:40.720Z,4.53
2023-05-01T05:49:08.761Z,4.67
2023-05-01T05:51:36.334Z,4.81
2023-05-01T05:54:03.982Z,4.97
2023-05-01T05:56:31.528Z,5.13
2023-05-01T05:58:59.102Z,5.45
2023-05-01T06:01:26.723Z,5.77
2023-05-01T06:03:54.396Z,6.09
2023-05-01T06:06:22.208Z,6.41
2023-05-01T06:08:50.014Z,6.70
2023-05-01T06:11:17.585Z,6.99
2023-05-01T06:13:45.174Z,7.28
2023-05-01T06:16:12.854Z,7.55
2023-05-01T06:18:41.225Z,7.78
2023-05-01T06:21:08.852Z,7.97
2023-05-01T06:23:36.634Z,8.20
2023-05-01T06:26:04.210Z,8.40
2023-05-01T06:28:31.765Z,8.59
2023-05-01T06:30:59.399Z,8.82
2023-05-01T06:33:26.996Z,9.04
2023-05-01T06:35:55.139Z,9.24
2023-05-01T06:38:23.951Z,9.40
2023-05-01T06:40:52.517Z,9.54
2023-05-01T06:43:20.324Z,9.63
2023-05-01T06:45:47.893Z,9.77
2023-05-01T06:48:15.534Z,9.88
2023-05-01T06:50:43.216Z,9.99
2023-05-01T06:53:10.850Z,10.10
2023-05-01T06:55:38.381Z,10.20
2023-05-01T06:58:12.622Z,10.30
2023-05-01T07:00:50.905Z,10.37
2023-05-01T07:03:18.561Z,10.44
2023-05-01T07:05:46.197Z,10.54
2023-05-01T07:08:13.754Z,10.62
2023-05-01T07:10:42.305Z,10.69
2023-05-01T07:13:10.083Z,10.73
2023-05-01T07:15:37.822Z,10.79
2023-05-01T07:18:05.460Z,10.86
2023-05-01T07:20:33.303Z,10.91
2023-05-01T07:23:00.816Z,10.95
2023-05-01T07:25:28.419Z,10.99
2023-05-01T07:27:56.054Z,11.03
2023-05-01T07:30:23.730Z,11.10
2023-05-01T07:32:51.393Z,11.19
2023-05-01T07:35:18.988Z,11.27
2023-05-01T07:37:46.561Z,11.34
2023-05-01T07:40:14.195Z,11.43
2023-05-01T07:42:41.751Z,11.51
2023-05-01T07:45:09.711Z,11.60
2023-05-01T07:47:37.357Z,11.67
2023-05-01T07:50:09.605Z,11.76
2023-05-01T07:52:37.538Z,11.85
2023-05-01T07:55:05.612Z,11.92
2023-05-01T07:57:33.243Z,12.00
2023-05-01T08:00:00.869Z,12.10
2023-05-01T08:02:28.597Z,12.19
2023-05-01T08:04:56.329Z,12.35
2023-05-01T08:07:23.972Z,12.47
2023-05-01T08:09:51.574Z,12.56
2023-05-01T08:12:19.206Z,12.66
2023-05-01T08:14:46.800Z,12.74
2023-05-01T08:17:14.399Z,12.77
2023-05-01T08:19:42.029Z,12.83
2023-05-01T08:22:09.602Z,12.88
2023-05-01T08:24:37.283Z,12.96
2023-05-01T08:27:05.280Z,13.03
2023-05-01T08:29:32.871Z,13.10
2023-05-01T08:32:00.705Z,13.22
2023-05-01T08:34:28.430Z,13.36
2023-05-01T08:36:55.985Z,13.50
2023-05-01T08:39:23.546Z,13.62
2023-05-01T08:41:52.752Z,13.73
2023-05-01T08:44:20.625Z,13.80
2023-05-01T08:47:11.401Z,13.83
2023-05-01T08:49:41.627Z,13.91
2023-05-01T08:52:12.069Z,13.97
2023-05-01T08:54:43.100Z,14.05
2023-05-01T08:57:12.158Z,14.15
2023-05-01T08:59:40.713Z,14.26
2023-05-01T09:02:09.869Z,14.37
2023-05-01T09:04:41.469Z,14.47
2023-05-01T09:07:09.476Z,14.58
2023-05-01T09:09:37.193Z,14.68
2023-05-01T09:12:25.484Z,14.77
2023-05-01T09:14:53.924Z,14.91
2023-05-01T09:17:22.917Z,15.03
2023-05-01T09:19:50.869Z,15.15
2023-05-01T09:22:19.103Z,15.28
2023-05-01T09:24:46.662Z,15.44
2023-05-01T09:27:14.892Z,15.54
2023-05-01T09:29:45.095Z,15.71
2023-05-01T09:32:14.560Z,15.86
2023-05-01T09:34:46.459Z,16.03
2023-05-01T09:37:27.021Z,16.24
2023-05-01T09:40:07.844Z,16.40
2023-05-01T09:42:52.425Z,16.53
2023-05-01T09:45:20.199Z,16.74
2023-05-01T09:47:47.985Z,16.97
2023-05-01T09:50:35.289Z,17.26
2023-05-01T09:53:04.513Z,18.14
2023-05-01T09:55:33.432Z,19.68
2023-05-01T09:58:01.042Z,21.16
2023-05-01T10:00:28.606Z,22.43
2023-05-01T10:02:56.325Z,23.46
2023-05-01T10:05:24.125Z,24.47
2023-05-01T10:07:59.113Z,25.39
2023-05-01T10:10:26.921Z,26.05
2023-05-01T10:12:54.593Z,26.73
2023-05-01T10:15:25.586Z,27.43
2023-05-01T10:17:54.586Z,27.97
2023-05-01T10:20:22.721Z,28.68
2023-05-01T10:22:50.324Z,29.41
2023-05-01T10:25:19.833Z,29.97
2023-05-01T10:27:48.477Z,30.25
2023-05-01T10:30:17.609Z,30.69
2023-05-01T10:32:45.834Z,31.05
2023-05-01T10:35:19.304Z,31.16
2023-05-01T10:37:48.802Z,31.05
2023-05-01T10:40:41.164Z,31.32
2023-05-01T10:43:20.587Z,31.83
2023-05-01T10:45:48.578Z,32.56
2023-05-01T10:48:38.247Z,32.96
2023-05-01T10:51:14.424Z,33.41
2023-05-01T10:53:43.418Z,34.04
2023-05-01T10:56:22.876Z,34.24
2023-05-01T10:58:53.364Z,34.65
2023-05-01T11:01:43.647Z,35.08
2023-05-01T11:04:20.163Z,35.18
2023-05-01T11:07:06.320Z,35.57
2023-05-01T11:09:53.393Z,35.91
2023-05-01T11:12:45.520Z,36.11
2023-05-01T11:15:26.112Z,36.44
2023-05-01T11:17:55.565Z,35.92
2023-05-01T11:20:26.202Z,35.56
2023-05-01T11:22:55.927Z,35.72
2023-05-01T11:25:26.126Z,36.45
2023-05-01T11:27:58.583Z,37.07
2023-05-01T11:30:26.249Z,37.56
2023-05-01T11:32:53.939Z,37.68
2023-05-01T11:35:23.766Z,37.71
2023-05-01T11:37:51.420Z,37.74
2023-05-01T11:40:20.045Z,37.73
2023-05-01T11:42:48.340Z,37.56
2023-05-01T11:45:16.144Z,37.60
2023-05-01T11:47:43.836Z,37.89
2023-05-01T11:50:11.828Z,38.94
2023-05-01T11:52:47.687Z,40.04
2023-05-01T11:55:16.475Z,40.52
2023-05-01T11:57:51.697Z,40.80
2023-05-01T12:00:33.546Z,41.49
2023-05-01T12:03:03.463Z,42.37
2023-05-01T12:05:32.569Z,43.29
2023-05-01T12:08:29.465Z,44.03
2023-05-01T12:10:57.579Z,44.11
2023-05-01T12:13:26.159Z,44.04
2023-05-01T12:15:57.374Z,43.57
2023-05-01T12:18:25.375Z,43.07
2023-05-01T12:20:54.855Z,42.80
2023-05-01T12:23:35.023Z,42.89
2023-05-01T12:26:02.953Z,41.90
2023-05-01T12:28:30.886Z,41.18
2023-05-01T12:31:04.689Z,41.24
2023-05-01T12:33:32.952Z,42.16
2023-05-01T12:36:10.006Z,42.87
2023-05-01T12:38:37.834Z,43.24
2023-05-01T12:41:05.474Z,43.60
2023-05-01T12:43:35.338Z,44.00
2023-05-01T12:46:04.649Z,44.06
2023-05-01T12:48:32.523Z,44.06
2023-05-01T12:51:00.753Z,43.82
2023-05-01T12:53:29.227Z,44.04
2023-05-01T12:55:58.655Z,44.61
2023-05-01T12:58:36.885Z,45.27
2023-05-01T13:01:04.768Z,45.13
2023-05-01T13:03:34.010Z,45.08
2023-05-01T13:06:03.980Z,45.22
2023-05-01T13:08:38.173Z,45.37
2023-05-01T13:11:09.913Z,46.24
2023-05-01T13:13:37.586Z,46.78
2023-05-01T13:16:16.402Z,47.25
2023-05-01T13:18:50.931Z,47.81
2023-05-01T13:21:21.119Z,47.27
2023-05-01T13:23:56.697Z,46.52
2023-05-01T13:26:32.466Z,46.05
2023-05-01T13:29:01.204Z,46.18
2023-05-01T13:31:30.116Z,46.64
2023-05-01T13:33:59.498Z,47.05
2023-05-01T13:36:31.636Z,47.77
2023-05-01T13:38:59.256Z,48.41
2023-05-01T13:41:27.939Z,48.53
2023-05-01T13:43:57.222Z,48.09
2023-05-01T13:46:26.066Z,47.58
2023-05-01T13:48:53.819Z,46.73
2023-05-01T13:51:24.202Z,46.24
2023-05-01T13:53:52.225Z,46.04
2023-05-01T13:56:19.826Z,46.09
2023-05-01T13:58:47.456Z,46.94
2023-05-01T14:01:18.081Z,47.70
2023-05-01T14:03:46.670Z,48.33
2023-05-01T14:06:19.371Z,48.47
2023-05-01T14:08:48.341Z,47.91
2023-05-01T14:11:16.362Z,47.57
2023-05-01T14:13:44.959Z,47.66
2023-05-01T14:16:26.990Z,47.84
2023-05-01T14:18:55.758Z,47.80
2023-05-01T14:21:25.537Z,47.90
2023-05-01T14:23:53.988Z,47.82
2023-05-01T14:26:22.215Z,48.26
2023-05-01T14:28:50.079Z,48.15
2023-05-01T14:31:24.830Z,47.59
2023-05-01T14:33:58.872Z,47.35
2023-05-01T14:36:27.583Z,47.67
2023-05-01T14:39:00.106Z,48.00
2023-05-01T14:41:27.776Z,48.15
2023-05-01T14:43:55.686Z,47.30
2023-05-01T14:46:29.964Z,46.88
2023-05-01T14:48:58.571Z,46.65
2023-05-01T14:51:26.510Z,46.77
2023-05-01T14:53:54.010Z,46.81
2023-05-01T14:56:21.630Z,46.39
2023-05-01T14:58:49.797Z,45.87
2023-05-01T15:01:17.561Z,46.41
2023-05-01T15:03:45.398Z,46.86
2023-05-01T15:06:13.280Z,46.46
2023-05-01T15:08:40.917Z,46.31
2023-05-01T15:11:08.669Z,45.77
2023-05-01T15:13:36.181Z,45.19
2023-05-01T15:16:03.991Z,44.86
2023-05-01T15:18:31.593Z,44.33
2023-05-01T15:20:59.179Z,42.73
2023-05-01T15:23:26.735Z,41.12
2023-05-01T15:25:54.973Z,39.83
2023-05-01T15:28:22.431Z,38.57
2023-05-01T15:30:51.916Z,37.07
2023-05-01T15:33:19.787Z,36.14
2023-05-01T15:35:47.723Z,36.47
2023-05-01T15:38:15.428Z,37.11
2023-05-01T15:40:43.567Z,37.91
2023-05-01T15:43:11.134Z,38.10
2023-05-01T15:45:38.786Z,38.41
2023-05-01T15:48:06.415Z,38.69
2023-05-01T15:50:34.059Z,38.05
2023-05-01T15:53:01.629Z,37.10
2023-05-01T15:55:29.204Z,36.85
2023-05-01T15:57:56.789Z,37.14
2023-05-01T16:00:24.391Z,37.52
2023-05-01T16:02:52.127Z,37.55
2023-05-01T16:05:20.202Z,37.64
2023-05-01T16:07:53.315Z,38.01
2023-05-01T16:10:20.968Z,38.39
2023-05-01T16:12:48.635Z,38.77
2023-05-01T16:15:16.960Z,38.91
2023-05-01T16:17:46.574Z,39.46
2023-05-01T16:20:14.682Z,39.66
2023-05-01T16:22:43.501Z,39.56
2023-05-01T16:25:11.790Z,39.75
2023-05-01T16:27:39.828Z,39.43
2023-05-01T16:30:08.717Z,38.20
2023-05-01T16:32:36.879Z,36.83
2023-05-01T16:35:04.872Z,36.16
2023-05-01T16:37:34.065Z,36.03
2023-05-01T16:40:01.960Z,35.48
2023-05-01T16:42:29.918Z,34.26
2023-05-01T16:44:57.485Z,33.31
2023-05-01T16:47:25.216Z,32.16
2023-05-01T16:50:00.750Z,30.96
2023-05-01T16:52:28.607Z,30.41
2023-05-01T16:54:56.181Z,29.87
2023-05-01T16:57:23.732Z,29.13
2023-05-01T16:59:51.293Z,28.85
2023-05-01T17:02:19.583Z,28.95
2023-05-01T17:04:47.353Z,28.67
2023-05-01T17:07:15.011Z,27.80
2023-05-01T17:09:42.593Z,26.72
2023-05-01T17:12:10.221Z,25.63
2023-05-01T17:14:37.809Z,24.65
2023-05-01T17:17:09.072Z,23.67
2023-05-01T17:19:37.888Z,22.79
2023-05-01T17:22:06.234Z,22.11
2023-05-01T17:24:35.371Z,21.43
2023-05-01T17:27:02.972Z,20.91
2023-05-01T17:29:30.542Z,20.48
2023-05-01T17:31:58.143Z,20.02
2023-05-01T17:34:25.819Z,19.62
2023-05-01T17:36:54.727Z,19.25
2023-05-01T17:39:23.573Z,18.88
2023-05-01T17:41:51.129Z,18.55
2023-05-01T17:44:18.680Z,18.24
2023-05-01T17:46:46.269Z,17.89
2023-05-01T17:49:13.855Z,17.58
2023-05-01T17:51:41.503Z,17.32
2023-05-01T17:54:09.127Z,17.05
2023-05-01T17:56:36.718Z,16.79
2023-05-01T17:59:04.342Z,16.55
2023-05-01T18:01:31.919Z,16.30
2023-05-01T18:03:59.742Z,16.06
2023-05-01T18:06:27.535Z,15.81
2023-05-01T18:08:55.177Z,15.55
2023-05-01T18:11:22.764Z,15.36
2023-05-01T18:13:50.377Z,15.19
2023-05-01T18:16:18.109Z,15.04
2023-05-01T18:18:46.337Z,14.92
2023-05-01T18:21:14.159Z,14.80
2023-05-01T18:23:41.758Z,14.69
2023-05-01T18:26:09.369Z,14.57
2023-05-01T18:28:36.932Z,14.45
2023-05-01T18:31:04.534Z,14.35
2023-05-01T18:33:32.271Z,14.23
2023-05-01T18:35:59.889Z,14.13
2023-05-01T18:38:28.367Z,14.02
2023-05-01T18:40:56.359Z,13.90
2023-05-01T18:43:23.945Z,13.82
2023-05-01T18:45:51.536Z,13.73
2023-05-01T18:48:19.124Z,13.62
2023-05-01T18:50:54.153Z,13.51
2023-05-01T18:53:28.999Z,13.41
2023-05-01T18:55:56.673Z,13.30
2023-05-01T18:58:24.255Z,13.20
2023-05-01T19:00:51.800Z,13.09
2023-05-01T19:03:19.377Z,12.99
2023-05-01T19:05:47.038Z,12.89
2023-05-01T19:08:14.621Z,12.82
2023-05-01T19:10:42.195Z,12.74
2023-05-01T19:13:09.837Z,12.64
2023-05-01T19:15:37.395Z,12.55
2023-05-01T19:18:04.985Z,12.49
2023-05-01T19:20:32.614Z,12.45
2023-05-01T19:23:00.234Z,12.38
2023-05-01T19:25:27.883Z,12.29
2023-05-01T19:27:56.552Z,12.20
2023-05-01T19:30:24.264Z,12.12
2023-05-01T19:32:52.260Z,12.04
2023-05-01T19:35:20.150Z,11.95
2023-05-01T19:37:59.362Z,11.87
2023-05-01T19:40:28.525Z,11.77
2023-05-01T19:42:56.154Z,11.68
2023-05-01T19:45:23.940Z,11.60
2023-05-01T19:47:51.665Z,11.54
2023-05-01T19:50:19.447Z,11.46
2023-05-01T19:52:48.381Z,11.37
2023-05-01T19:55:16.258Z,11.28
2023-05-01T19:57:45.509Z,11.18
2023-05-01T20:00:14.111Z,11.07
2023-05-01T20:02:41.949Z,10.98
2023-05-01T20:05:10.169Z,10.90
2023-05-01T20:07:39.428Z,10.83
2023-05-01T20:10:07.488Z,10.78
2023-05-01T20:12:35.142Z,10.69
2023-05-01T20:15:02.953Z,10.60
2023-05-01T20:17:30.643Z,10.51
2023-05-01T20:19:58.515Z,10.38
2023-05-01T20:22:26.417Z,10.27
2023-05-01T20:24:54.279Z,10.17
2023-05-01T20:27:23.134Z,10.08
2023-05-01T20:29:50.940Z,10.01
2023-05-01T20:32:18.544Z,9.94
2023-05-01T20:34:46.150Z,9.88
2023-05-01T20:37:13.745Z,9.79
2023-05-01T20:39:41.280Z,9.71
2023-05-01T20:42:08.953Z,9.63
2023-05-01T20:44:36.529Z,9.56
2023-05-01T20:47:04.095Z,9.47
2023-05-01T20:49:31.642Z,9.38
2023-05-01T20:51:59.286Z,9.31
2023-05-01T20:54:26.869Z,9.27
2023-05-01T20:56:54.401Z,9.23
2023-05-01T20:59:21.964Z,9.20
2023-05-01T21:01:49.743Z,9.19
2023-05-01T21:04:17.741Z,9.18
2023-05-01T21:06:45.453Z,9.13
2023-05-01T21:09:13.085Z,9.10
2023-05-01T21:11:40.862Z,9.03
2023-05-01T21:14:08.707Z,8.97
2023-05-01T21:16:36.470Z,8.93
2023-05-01T21:19:04.212Z,8.88
2023-05-01T21:21:35.479Z,8.85
2023-05-01T21:24:03.238Z,8.83
2023-05-01T21:26:30.866Z,8.78
2023-05-01T21:28:58.451Z,8.74
2023-05-01T21:31:31.095Z,8.68
2023-05-01T21:34:00.692Z,8.63
2023-05-01T21:36:28.343Z,8.56
2023-05-01T21:38:55.939Z,8.48
2023-05-01T21:41:23.566Z,8.42
2023-05-01T21:43:51.407Z,8.39
2023-05-01T21:46:19.514Z,8.38
2023-05-01T21:48:50.891Z,8.34
2023-05-01T21:51:18.657Z,8.27
2023-05-01T21:53:46.188Z,8.21
2023-05-01T21:56:14.432Z,8.15
2023-05-01T21:58:42.047Z,8.11
2023-05-01T22:01:12.802Z,8.06
2023-05-01T22:03:40.593Z,8.01
2023-05-01T22:06:08.464Z,7.96
2023-05-01T22:08:36.028Z,7.92
2023-05-01T22:11:03.614Z,7.88
2023-05-01T22:13:31.175Z,7.84
2023-05-01T22:16:01.515Z,7.77
2023-05-01T22:18:29.256Z,7.71
2023-05-01T22:20:56.938Z,7.65
2023-05-01T22:23:24.625Z,7.62
2023-05-01T22:25:52.267Z,7.58
2023-05-01T22:28:20.931Z,7.56
2023-05-01T22:30:49.153Z,7.55
2023-05-01T22:33:16.914Z,7.53
2023-05-01T22:35:44.506Z,7.53
2023-05-01T22:38:12.138Z,7.55
2023-05-01T22:40:39.738Z,7.56
2023-05-01T22:43:07.311Z,7.56
2023-05-01T22:45:34.936Z,7.55
2023-05-01T22:48:02.568Z,7.56
2023-05-01T22:50:30.162Z,7.56
2023-05-01T22:52:57.757Z,7.56
2023-05-01T22:55:25.304Z,7.53
2023-05-01T22:57:52.836Z,7.50
2023-05-01T23:00:20.930Z,7.47
2023-05-01T23:02:48.676Z,7.43
2023-05-01T23:05:17.242Z,7.42
2023-05-01T23:07:44.981Z,7.42
2023-05-01T23:10:12.783Z,7.41
2023-05-01T23:12:43.412Z,7.38
2023-05-01T23:15:11.911Z,7.34
2023-05-01T23:17:39.796Z,7.30
2023-05-01T23:20:08.329Z,7.27
2023-05-01T23:22:36.336Z,7.25
2023-05-01T23:25:05.570Z,7.22
2023-05-01T23:27:34.913Z,7.19
2023-05-01T23:30:05.304Z,7.16
2023-05-01T23:32:33.890Z,7.12
2023-05-01T23:35:15.321Z,7.10
2023-05-01T23:37:42.898Z,7.06
2023-05-01T23:40:10.836Z,7.03
2023-05-01T23:42:39.584Z,7.01
2023-05-01T23:45:08.070Z,6.98
2023-05-01T23:47:36.057Z,6.96
2023-05-01T23:50:03.984Z,6.93
2023-05-01T23:52:31.596Z,6.91
2023-05-01T23:54:59.172Z,6.90
2023-05-01T23:57:26.878Z,6.88
2023-05-01T23:59:54.450Z,6.85
